createdAt,value
2023-08-14T00:01:45.873Z,100.00
2023-08-14T00:04:19.584Z,100.00
2023-08-14T00:06:53.129Z,100.00
2023-08-14T00:09:26.861Z,100.00
2023-08-14T00:12:00.728Z,100.00
2023-08-14T00:14:34.943Z,100.00
2023-08-14T00:17:08.952Z,100.00
2023-08-14T00:19:43.115Z,100.00
2023-08-14T00:22:17.313Z,100.00
2023-08-14T00:24:50.912Z,100.00
2023-08-14T00:27:26.246Z,100.00
2023-08-14T00:30:00.260Z,100.00
2023-08-14T00:32:34.048Z,100.00
2023-08-14T00:35:09.884Z,100.00
2023-08-14T00:37:48.956Z,100.00
2023-08-14T00:40:23.133Z,100.00
2023-08-14T00:42:56.426Z,100.00
2023-08-14T00:45:45.289Z,100.00
2023-08-14T00:48:21.229Z,100.00
2023-08-14T00:50:56.062Z,100.00
2023-08-14T00:53:31.646Z,100.00
2023-08-14T00:56:07.505Z,100.00
2023-08-14T00:58:42.098Z,100.00
2023-08-14T01:01:16.519Z,100.00
2023-08-14T01:03:51.653Z,100.00
2023-08-14T01:06:25.259Z,100.00
2023-08-14T01:08:59.434Z,100.00
2023-08-14T01:11:46.157Z,100.00
2023-08-14T01:14:25.239Z,100.00
2023-08-14T01:17:02.197Z,100.00
2023-08-14T01:19:42.540Z,100.00
2023-08-14T01:22:25.607Z,100.00
2023-08-14T01:25:21.046Z,100.00
2023-08-14T01:27:57.059Z,100.00
2023-08-14T01:30:31.591Z,100.00
2023-08-14T01:33:05.951Z,100.00
2023-08-14T01:35:45.308Z,100.00
2023-08-14T01:38:25.403Z,100.00
2023-08-14T01:41:08.672Z,100.00
2023-08-14T01:43:48.004Z,100.00
2023-08-14T01:46:22.593Z,100.00
2023-08-14T01:48:58.667Z,100.00
2023-08-14T01:51:35.125Z,100.00
2023-08-14T01:54:10.265Z,100.00
2023-08-14T01:56:44.314Z,100.00
2023-08-14T01:59:18.402Z,100.00
2023-08-14T02:01:52.214Z,100.00
2023-08-14T02:04:26.016Z,100.00
2023-08-14T02:07:01.868Z,100.00
2023-08-14T02:09:36.286Z,100.00
2023-08-14T02:12:11.770Z,100.00
2023-08-14T02:14:46.165Z,100.00
2023-08-14T02:17:20.080Z,100.00
2023-08-14T02:19:54.024Z,100.00
2023-08-14T02:22:27.156Z,100.00
2023-08-14T02:25:00.849Z,100.00
2023-08-14T02:27:35.894Z,100.00
2023-08-14T02:30:11.597Z,100.00
2023-08-14T02:32:45.423Z,100.00
2023-08-14T02:35:19.449Z,100.00
2023-08-14T02:37:53.472Z,100.00
2023-08-14T02:40:27.310Z,100.00
2023-08-14T02:43:04.567Z,100.00
2023-08-14T02:45:40.154Z,100.00
2023-08-14T02:48:14.005Z,100.00
2023-08-14T02:50:48.181Z,100.00
2023-08-14T02:53:21.616Z,100.00
2023-08-14T02:55:55.779Z,100.00
2023-08-14T02:58:31.506Z,100.00
2023-08-14T03:01:05.660Z,100.00
2023-08-14T03:03:39.927Z,100.00
2023-08-14T03:06:13.928Z,100.00
2023-08-14T03:08:48.270Z,100.00
2023-08-14T03:11:21.934Z,100.00
2023-08-14T03:13:56.448Z,100.00
2023-08-14T03:16:30.196Z,100.00
2023-08-14T03:19:03.718Z,100.00
2023-08-14T03:21:38.183Z,100.00
2023-08-14T03:24:12.725Z,100.00
2023-08-14T03:26:46.614Z,100.00
2023-08-14T03:29:20.832Z,100.00
2023-08-14T03:31:55.040Z,100.00
2023-08-14T03:34:28.863Z,100.00
2023-08-14T03:37:02.993Z,100.00
2023-08-14T03:39:36.865Z,100.00
2023-08-14T03:42:10.786Z,100.00
2023-08-14T03:44:44.782Z,100.00
2023-08-14T03:47:18.820Z,100.00
2023-08-14T03:49:52.851Z,100.00
2023-08-14T03:52:27.726Z,100.00
2023-08-14T03:55:01.986Z,100.00
2023-08-14T03:57:36.927Z,100.00
2023-08-14T04:00:15.012Z,100.00
2023-08-14T04:02:49.769Z,100.00
2023-08-14T04:05:24.448Z,100.00
2023-08-14T04:07:58.538Z,100.00
2023-08-14T04:10:33.429Z,100.00
2023-08-14T04:13:06.768Z,100.00
2023-08-14T04:15:40.782Z,100.00
2023-08-14T04:18:15.158Z,100.00
2023-08-14T04:20:49.977Z,100.00
2023-08-14T04:23:25.908Z,100.00
2023-08-14T04:25:59.894Z,100.00
2023-08-14T04:28:34.853Z,100.00
2023-08-14T04:31:08.727Z,100.00
2023-08-14T04:33:42.733Z,100.00
2023-08-14T04:36:18.007Z,100.00
2023-08-14T04:38:52.916Z,100.00
2023-08-14T04:41:28.951Z,100.00
2023-08-14T04:44:03.034Z,100.00
2023-08-14T04:49:16.362Z,100.00
2023-08-14T04:51:50.427Z,100.00
2023-08-14T04:54:25.632Z,100.00
2023-08-14T04:56:59.649Z,100.00
2023-08-14T04:59:33.275Z,100.00
2023-08-14T05:02:07.293Z,100.00
2023-08-14T05:04:41.351Z,100.00
2023-08-14T05:07:15.329Z,100.00
2023-08-14T05:09:50.991Z,100.00
2023-08-14T05:12:24.967Z,100.00
2023-08-14T05:14:59.201Z,100.00
2023-08-14T05:17:33.055Z,100.00
2023-08-14T05:20:08.367Z,100.00
2023-08-14T05:22:44.177Z,100.00
2023-08-14T05:25:18.624Z,100.00
2023-08-14T05:27:51.884Z,100.00
2023-08-14T05:30:25.701Z,100.00
2023-08-14T05:32:59.571Z,100.00
2023-08-14T05:35:34.368Z,100.00
2023-08-14T05:38:08.761Z,100.00
2023-08-14T05:40:42.181Z,100.00
2023-08-14T05:43:16.547Z,100.00
2023-08-14T05:45:51.566Z,100.00
2023-08-14T05:48:25.430Z,100.00
2023-08-14T05:50:59.202Z,100.00
2023-08-14T05:53:33.009Z,100.00
2023-08-14T05:56:07.731Z,100.00
2023-08-14T05:58:41.025Z,100.00
2023-08-14T06:01:16.090Z,100.00
2023-08-14T06:03:50.620Z,100.00
2023-08-14T06:06:25.167Z,100.00
2023-08-14T06:09:01.046Z,100.00
2023-08-14T06:11:36.808Z,100.00
2023-08-14T06:14:10.886Z,100.00
2023-08-14T06:16:45.221Z,100.00
2023-08-14T06:19:19.250Z,100.00
2023-08-14T06:21:53.589Z,100.00
2023-08-14T06:24:30.024Z,100.00
2023-08-14T06:27:03.209Z,100.00
2023-08-14T06:29:36.514Z,100.00
2023-08-14T06:32:11.824Z,100.00
2023-08-14T06:34:46.120Z,100.00
2023-08-14T06:37:19.928Z,100.00
2023-08-14T06:39:53.412Z,100.00
2023-08-14T06:42:26.672Z,100.00
2023-08-14T06:45:00.534Z,100.00
2023-08-14T06:47:34.002Z,100.00
2023-08-14T06:50:10.084Z,100.00
2023-08-14T06:52:43.668Z,100.00
2023-08-14T06:55:18.060Z,100.00
2023-08-14T06:57:51.027Z,100.00
2023-08-14T07:00:25.199Z,100.00
2023-08-14T07:02:58.992Z,100.00
2023-08-14T07:05:32.857Z,100.00
2023-08-14T07:08:07.997Z,99.94
2023-08-14T07:10:41.881Z,98.31
2023-08-14T07:13:15.766Z,98.36
2023-08-14T07:15:50.386Z,97.32
2023-08-14T07:18:24.279Z,96.35
2023-08-14T07:21:00.033Z,95.53
2023-08-14T07:23:33.808Z,93.82
2023-08-14T07:26:13.134Z,93.06
2023-08-14T07:28:46.948Z,91.31
2023-08-14T07:31:20.533Z,89.27
2023-08-14T07:33:55.150Z,88.46
2023-08-14T07:36:29.174Z,88.01
2023-08-14T07:39:02.461Z,87.11
2023-08-14T07:41:36.574Z,84.93
2023-08-14T07:44:10.788Z,83.31
2023-08-14T07:46:44.795Z,81.37
2023-08-14T07:49:18.504Z,79.21
2023-08-14T07:51:52.820Z,79.39
2023-08-14T07:54:26.772Z,76.81
2023-08-14T07:57:00.422Z,74.74
2023-08-14T07:59:35.302Z,74.43
2023-08-14T08:02:09.411Z,73.79
2023-08-14T08:04:44.025Z,73.59
2023-08-14T08:07:18.672Z,72.86
2023-08-14T08:09:54.295Z,71.44
2023-08-14T08:12:27.963Z,69.39
2023-08-14T08:15:02.722Z,67.45
2023-08-14T08:17:36.985Z,66.48
2023-08-14T08:20:13.633Z,65.95
2023-08-14T08:22:47.496Z,65.00
2023-08-14T08:25:21.628Z,64.06
2023-08-14T08:27:54.815Z,63.14
2023-08-14T08:30:28.485Z,61.12
2023-08-14T08:33:03.702Z,60.64
2023-08-14T08:35:38.143Z,59.66
2023-08-14T08:38:12.369Z,59.02
2023-08-14T08:40:51.897Z,58.16
2023-08-14T08:43:25.907Z,56.41
2023-08-14T08:46:05.674Z,55.55
2023-08-14T08:48:44.796Z,53.03
2023-08-14T08:51:19.897Z,51.90
2023-08-14T08:53:53.833Z,51.19
2023-08-14T08:56:28.071Z,49.93
2023-08-14T08:59:02.581Z,49.43
2023-08-14T09:01:36.859Z,48.96
2023-08-14T09:04:11.379Z,47.96
2023-08-14T09:06:47.440Z,47.02
2023-08-14T09:09:22.378Z,46.79
2023-08-14T09:11:56.479Z,45.84
2023-08-14T09:14:30.844Z,45.30
2023-08-14T09:17:06.183Z,44.74
2023-08-14T09:19:42.768Z,44.17
2023-08-14T09:22:16.743Z,43.22
2023-08-14T09:24:52.050Z,43.45
2023-08-14T09:27:28.456Z,43.61
2023-08-14T09:30:03.512Z,43.46
2023-08-14T09:32:38.213Z,43.04
2023-08-14T09:35:13.127Z,42.45
2023-08-14T09:37:47.773Z,41.41
2023-08-14T09:40:22.669Z,41.48
2023-08-14T09:42:55.577Z,40.93
2023-08-14T09:45:36.150Z,41.09
2023-08-14T09:48:11.214Z,40.65
2023-08-14T09:50:50.308Z,40.23
2023-08-14T09:53:23.611Z,39.98
2023-08-14T09:55:57.186Z,39.16
2023-08-14T09:58:30.906Z,38.73
2023-08-14T10:01:05.489Z,38.18
2023-08-14T10:03:41.787Z,38.55
2023-08-14T10:06:17.024Z,38.08
2023-08-14T10:08:53.534Z,38.40
2023-08-14T10:11:30.411Z,38.09
2023-08-14T10:14:08.325Z,37.54
2023-08-14T10:16:42.425Z,37.65
2023-08-14T10:19:21.308Z,37.79
2023-08-14T10:21:56.982Z,37.45
2023-08-14T10:24:32.074Z,37.09
2023-08-14T10:27:06.738Z,36.82
2023-08-14T10:29:41.026Z,36.66
2023-08-14T10:32:14.947Z,36.63
2023-08-14T10:34:50.898Z,36.75
2023-08-14T10:37:50.268Z,37.02
2023-08-14T10:40:30.780Z,36.61
2023-08-14T10:43:06.495Z,36.53
2023-08-14T10:45:41.711Z,36.09
2023-08-14T10:48:15.929Z,35.86
2023-08-14T10:50:59.259Z,35.56
2023-08-14T10:53:34.712Z,35.63
2023-08-14T10:56:11.522Z,35.84
2023-08-14T10:58:53.219Z,35.48
2023-08-14T11:01:39.344Z,35.26
2023-08-14T11:04:12.914Z,35.22
2023-08-14T11:07:13.374Z,34.98
2023-08-14T11:09:50.031Z,35.21
2023-08-14T11:12:23.821Z,35.07
2023-08-14T11:14:57.893Z,34.86
2023-08-14T11:17:31.525Z,34.92
2023-08-14T11:20:11.991Z,34.67
2023-08-14T11:22:48.135Z,34.21
2023-08-14T11:25:22.469Z,34.11
2023-08-14T11:27:56.946Z,33.95
2023-08-14T11:30:35.827Z,33.87
2023-08-14T11:33:10.260Z,34.14
2023-08-14T11:35:45.630Z,34.20
2023-08-14T11:38:22.671Z,34.08
2023-08-14T11:40:56.691Z,34.37
2023-08-14T11:43:30.720Z,34.34
2023-08-14T11:46:05.532Z,34.29
2023-08-14T11:48:41.229Z,34.02
2023-08-14T11:51:17.129Z,33.75
2023-08-14T11:53:50.433Z,33.18
2023-08-14T11:56:24.319Z,33.29
2023-08-14T11:59:06.991Z,32.91
2023-08-14T12:01:42.770Z,33.25
2023-08-14T12:04:16.730Z,33.18
2023-08-14T12:06:50.953Z,33.43
2023-08-14T12:09:27.176Z,33.33
2023-08-14T12:12:01.993Z,32.65
2023-08-14T12:14:44.245Z,33.28
2023-08-14T12:17:21.214Z,33.09
2023-08-14T12:19:58.737Z,33.00
2023-08-14T12:22:33.227Z,32.94
2023-08-14T12:25:09.922Z,32.95
2023-08-14T12:27:43.915Z,33.10
2023-08-14T12:30:18.710Z,32.82
2023-08-14T12:32:52.258Z,32.79
2023-08-14T12:35:25.977Z,33.05
2023-08-14T12:38:00.188Z,33.15
2023-08-14T12:40:35.327Z,32.67
2023-08-14T12:43:08.522Z,32.84
2023-08-14T12:45:42.245Z,32.75
2023-08-14T12:48:17.230Z,32.56
2023-08-14T12:50:50.511Z,32.62
2023-08-14T12:53:24.083Z,32.88
2023-08-14T12:56:03.582Z,32.52
2023-08-14T12:58:38.840Z,32.59
2023-08-14T13:01:12.877Z,32.39
2023-08-14T13:03:46.677Z,32.15
2023-08-14T13:06:21.414Z,32.18
2023-08-14T13:08:55.458Z,32.23
2023-08-14T13:11:29.767Z,32.05
2023-08-14T13:14:03.168Z,32.03
2023-08-14T13:16:36.950Z,32.19
2023-08-14T13:19:10.876Z,31.84
2023-08-14T13:21:44.672Z,31.91
2023-08-14T13:24:18.609Z,31.83
2023-08-14T13:26:52.725Z,32.14
2023-08-14T13:32:06.160Z,32.23
2023-08-14T13:34:39.703Z,31.95
2023-08-14T13:37:13.631Z,31.67
2023-08-14T13:39:48.943Z,31.74
2023-08-14T13:42:22.536Z,31.98
2023-08-14T13:44:58.586Z,31.74
2023-08-14T13:47:48.017Z,32.11
2023-08-14T13:50:33.179Z,32.07
2023-08-14T13:53:08.594Z,32.43
2023-08-14T13:55:44.941Z,32.67
2023-08-14T13:58:17.715Z,32.42
2023-08-14T14:00:52.572Z,32.38
2023-08-14T14:03:26.515Z,32.71
2023-08-14T14:06:00.625Z,32.54
2023-08-14T14:08:35.420Z,32.75
2023-08-14T14:11:09.294Z,32.25
2023-08-14T14:13:42.630Z,32.34
2023-08-14T14:16:16.641Z,32.02
2023-08-14T14:18:50.523Z,32.35
2023-08-14T14:21:24.264Z,32.28
2023-08-14T14:23:57.657Z,32.37
2023-08-14T14:26:31.855Z,32.43
2023-08-14T14:29:04.943Z,32.31
2023-08-14T14:31:39.163Z,32.16
2023-08-14T14:34:12.857Z,32.37
2023-08-14T14:36:47.229Z,32.45
2023-08-14T14:39:21.706Z,32.76
2023-08-14T14:41:56.192Z,32.89
2023-08-14T14:44:29.836Z,33.38
2023-08-14T14:47:03.867Z,33.24
2023-08-14T14:49:37.830Z,33.30
2023-08-14T14:52:12.157Z,33.20
2023-08-14T14:54:45.719Z,33.53
2023-08-14T14:57:20.199Z,33.32
2023-08-14T14:59:54.087Z,33.30
2023-08-14T15:02:30.134Z,33.42
2023-08-14T15:05:07.120Z,33.34
2023-08-14T15:07:42.461Z,33.25
2023-08-14T15:10:17.541Z,33.46
2023-08-14T15:12:51.241Z,33.51
2023-08-14T15:15:25.416Z,33.49
2023-08-14T15:17:59.451Z,33.36
2023-08-14T15:20:33.436Z,33.20
2023-08-14T15:23:09.741Z,33.41
2023-08-14T15:25:44.129Z,33.21
2023-08-14T15:28:17.210Z,33.21
2023-08-14T15:30:51.108Z,33.17
2023-08-14T15:33:24.707Z,33.23
2023-08-14T15:35:59.126Z,33.50
2023-08-14T15:38:33.286Z,33.15
2023-08-14T15:41:11.516Z,33.21
2023-08-14T15:43:44.732Z,33.17
2023-08-14T15:46:18.431Z,33.43
2023-08-14T15:48:54.349Z,33.28
2023-08-14T15:51:28.099Z,33.44
2023-08-14T15:54:01.707Z,33.33
2023-08-14T15:56:36.417Z,33.44
2023-08-14T15:59:10.207Z,33.47
2023-08-14T16:01:44.150Z,33.76
2023-08-14T16:04:18.102Z,33.58
2023-08-14T16:06:52.098Z,33.50
2023-08-14T16:09:26.391Z,33.54
2023-08-14T16:12:01.213Z,33.54
2023-08-14T16:14:35.449Z,33.85
2023-08-14T16:17:09.849Z,33.72
2023-08-14T16:19:43.854Z,33.98
2023-08-14T16:22:17.759Z,33.84
2023-08-14T16:24:51.752Z,33.98
2023-08-14T16:27:25.684Z,34.47
2023-08-14T16:29:59.952Z,34.30
2023-08-14T16:32:33.941Z,34.38
2023-08-14T16:35:09.894Z,34.61
2023-08-14T16:37:44.210Z,34.54
2023-08-14T16:40:18.871Z,34.98
2023-08-14T16:42:52.525Z,35.17
2023-08-14T16:45:26.820Z,35.16
2023-08-14T16:48:01.179Z,35.20
2023-08-14T16:50:38.290Z,35.57
2023-08-14T16:53:13.159Z,35.55
2023-08-14T16:55:47.164Z,35.66
2023-08-14T16:58:20.833Z,36.12
2023-08-14T17:00:55.097Z,36.24
2023-08-14T17:03:28.652Z,36.46
2023-08-14T17:06:06.871Z,36.41
2023-08-14T17:08:40.776Z,36.56
2023-08-14T17:11:14.912Z,36.81
2023-08-14T17:13:48.166Z,37.19
2023-08-14T17:16:21.973Z,37.46
2023-08-14T17:18:55.914Z,37.63
2023-08-14T17:21:30.451Z,37.63
2023-08-14T17:24:04.074Z,37.65
2023-08-14T17:26:37.943Z,38.23
2023-08-14T17:29:11.344Z,38.32
2023-08-14T17:31:45.055Z,38.59
2023-08-14T17:34:19.490Z,38.78
2023-08-14T17:36:53.986Z,39.10
2023-08-14T17:39:28.462Z,39.01
2023-08-14T17:42:02.228Z,39.55
2023-08-14T17:44:36.311Z,39.68
2023-08-14T17:47:10.833Z,39.91
2023-08-14T17:49:44.435Z,40.03
2023-08-14T17:52:18.469Z,40.52
2023-08-14T17:54:52.669Z,40.73
2023-08-14T17:57:26.261Z,41.06
2023-08-14T18:00:00.432Z,41.27
2023-08-14T18:02:34.740Z,41.63
2023-08-14T18:05:10.318Z,41.90
2023-08-14T18:07:45.454Z,42.08
2023-08-14T18:10:20.097Z,42.14
2023-08-14T18:12:53.552Z,42.51
2023-08-14T18:15:27.719Z,42.70
2023-08-14T18:18:02.115Z,43.07
2023-08-14T18:20:36.508Z,43.19
2023-08-14T18:23:10.869Z,43.44
2023-08-14T18:25:44.679Z,43.78
2023-08-14T18:28:18.509Z,44.01
2023-08-14T18:30:52.491Z,44.18
2023-08-14T18:33:26.298Z,44.72
2023-08-14T18:36:01.480Z,44.97
2023-08-14T18:38:35.340Z,45.98
2023-08-14T18:41:09.586Z,46.53
2023-08-14T18:43:42.484Z,47.11
2023-08-14T18:46:17.176Z,47.56
2023-08-14T18:48:50.617Z,47.90
2023-08-14T18:51:24.841Z,48.40
2023-08-14T18:53:59.774Z,48.52
2023-08-14T18:56:33.346Z,48.67
2023-08-14T18:59:11.544Z,48.73
2023-08-14T19:01:46.700Z,49.07
2023-08-14T19:04:29.200Z,49.07
2023-08-14T19:07:10.977Z,49.83
2023-08-14T19:09:45.891Z,50.85
2023-08-14T19:12:20.048Z,51.88
2023-08-14T19:14:54.085Z,51.94
2023-08-14T19:17:27.714Z,51.67
2023-08-14T19:20:02.334Z,51.32
2023-08-14T19:22:36.848Z,51.52
2023-08-14T19:25:13.029Z,51.94
2023-08-14T19:27:47.953Z,51.87
2023-08-14T19:30:22.170Z,52.06
2023-08-14T19:32:56.048Z,52.13
2023-08-14T19:35:30.071Z,52.61
2023-08-14T19:38:03.994Z,52.56
2023-08-14T19:40:40.923Z,53.12
2023-08-14T19:43:14.883Z,53.49
2023-08-14T19:45:48.478Z,53.92
2023-08-14T19:48:22.490Z,54.22
2023-08-14T19:50:58.173Z,54.54
2023-08-14T19:53:31.175Z,54.62
2023-08-14T19:56:05.673Z,54.84
2023-08-14T19:58:40.228Z,54.84
2023-08-14T20:01:15.016Z,54.78
2023-08-14T20:03:49.008Z,54.90
2023-08-14T20:06:24.275Z,54.77
2023-08-14T20:09:00.252Z,54.99
2023-08-14T20:11:39.112Z,54.83
2023-08-14T20:14:13.777Z,54.73
2023-08-14T20:16:49.484Z,54.95
2023-08-14T20:19:23.649Z,55.00
2023-08-14T20:21:57.484Z,55.26
2023-08-14T20:24:31.602Z,55.73
2023-08-14T20:27:06.759Z,57.27
2023-08-14T20:29:40.253Z,58.01
2023-08-14T20:32:13.689Z,58.51
2023-08-14T20:34:47.764Z,60.23
2023-08-14T20:37:22.396Z,62.64
2023-08-14T20:39:57.131Z,64.96
2023-08-14T20:42:30.724Z,67.02
2023-08-14T20:45:05.724Z,67.85
2023-08-14T20:47:39.921Z,69.98
2023-08-14T20:50:15.355Z,71.41
2023-08-14T20:52:49.311Z,72.90
2023-08-14T20:55:23.784Z,74.35
2023-08-14T20:57:57.864Z,75.91
2023-08-14T21:00:31.773Z,77.22
2023-08-14T21:03:05.363Z,77.40
2023-08-14T21:05:39.414Z,77.42
2023-08-14T21:08:13.043Z,79.02
2023-08-14T21:10:47.487Z,80.17
2023-08-14T21:13:21.260Z,80.85
2023-08-14T21:15:58.647Z,80.75
2023-08-14T21:18:32.293Z,80.81
2023-08-14T21:21:06.924Z,81.35
2023-08-14T21:23:40.533Z,82.12
2023-08-14T21:26:14.274Z,81.89
2023-08-14T21:28:47.826Z,81.79
2023-08-14T21:31:21.679Z,82.31
2023-08-14T21:33:55.747Z,82.97
2023-08-14T21:36:29.495Z,82.97
2023-08-14T21:39:05.036Z,83.96
2023-08-14T21:41:38.688Z,84.62
2023-08-14T21:44:11.988Z,85.33
2023-08-14T21:46:45.619Z,86.08
2023-08-14T21:49:19.898Z,86.18
2023-08-14T21:51:53.986Z,86.46
2023-08-14T21:54:27.561Z,87.40
2023-08-14T21:57:02.035Z,87.85
2023-08-14T21:59:35.475Z,88.25
2023-08-14T22:02:09.519Z,88.83
2023-08-14T22:04:43.688Z,89.24
2023-08-14T22:07:18.039Z,90.48
2023-08-14T22:09:52.062Z,90.94
2023-08-14T22:12:26.911Z,91.56
2023-08-14T22:15:00.328Z,91.90
2023-08-14T22:17:36.432Z,92.90
2023-08-14T22:20:13.355Z,93.09
2023-08-14T22:22:47.550Z,93.50
2023-08-14T22:25:22.939Z,93.92
2023-08-14T22:27:56.882Z,94.52
2023-08-14T22:30:30.224Z,95.36
2023-08-14T22:33:05.330Z,95.74
2023-08-14T22:35:39.137Z,96.28
2023-08-14T22:38:12.997Z,96.59
2023-08-14T22:40:47.147Z,96.94
2023-08-14T22:43:21.369Z,97.11
2023-08-14T22:45:55.296Z,97.92
2023-08-14T22:48:29.033Z,98.49
2023-08-14T22:51:02.364Z,98.76
2023-08-14T22:53:35.693Z,99.71
2023-08-14T22:56:09.983Z,99.82
2023-08-14T22:58:43.958Z,100.00
2023-08-14T23:01:17.532Z,100.00
2023-08-14T23:03:51.484Z,100.00
2023-08-14T23:06:25.618Z,100.00
2023-08-14T23:09:00.010Z,100.00
2023-08-14T23:11:35.169Z,100.00
2023-08-14T23:14:08.986Z,100.00
2023-08-14T23:16:43.156Z,100.00
2023-08-14T23:19:17.036Z,100.00
2023-08-14T23:21:51.155Z,100.00
2023-08-14T23:24:24.389Z,100.00
2023-08-14T23:26:58.502Z,100.00
2023-08-14T23:29:32.457Z,100.00
2023-08-14T23:32:07.336Z,100.00
2023-08-14T23:34:41.202Z,100.00
2023-08-14T23:37:14.542Z,100.00
2023-08-14T23:39:48.973Z,100.00
2023-08-14T23:42:22.756Z,100.00
2023-08-14T23:44:56.573Z,100.00
2023-08-14T23:47:30.590Z,100.00
2023-08-14T23:50:04.626Z,100.00
2023-08-14T23:52:38.602Z,100.00
2023-08-14T23:55:12.887Z,100.00
2023-08-14T23:57:46.485Z,100.00
